sensor_id;sensor_type;location;lat;lon;timestamp;P1;durP1;ratioP1;P2;durP2;ratioP2
21354;SDS011;10835;50.148;19.760;2023-02-16T00:02:11;42.83;;;13.73;;
21354;SDS011;10835;50.148;19.760;2023-02-16T00:04:43;41.45;;;14.38;;
21354;SDS011;10835;50.148;19.760;2023-02-16T00:07:11;46.35;;;14.40;;
21354;SDS011;10835;50.148;19.760;2023-02-16T00:09:39;33.05;;;12.45;;
21354;SDS011;10835;50.148;19.760;2023-02-16T00:12:08;37.53;;;12.70;;
21354;SDS011;10835;50.148;19.760;2023-02-16T00:15:09;45.92;;;14.60;;
21354;SDS011;10835;50.148;19.760;2023-02-16T00:17:42;42.17;;;14.65;;
21354;SDS011;10835;50.148;19.760;2023-02-16T00:20:12;37.50;;;13.43;;
21354;SDS011;10835;50.148;19.760;2023-02-16T00:22:44;37.45;;;13.48;;
21354;SDS011;10835;50.148;19.760;2023-02-16T00:25:12;42.70;;;16.13;;
21354;SDS011;10835;50.148;19.760;2023-02-16T00:27:42;41.13;;;15.23;;
21354;SDS011;10835;50.148;19.760;2023-02-16T00:30:13;38.45;;;12.18;;
21354;SDS011;10835;50.148;19.760;2023-02-16T00:32:42;36.42;;;12.73;;
21354;SDS011;10835;50.148;19.760;2023-02-16T00:35:12;35.67;;;11.45;;
21354;SDS011;10835;50.148;19.760;2023-02-16T00:37:44;32.40;;;12.50;;
21354;SDS011;10835;50.148;19.760;2023-02-16T00:40:13;36.75;;;12.45;;
21354;SDS011;10835;50.148;19.760;2023-02-16T00:42:45;40.50;;;13.38;;
21354;SDS011;10835;50.148;19.760;2023-02-16T00:45:15;37.15;;;14.65;;
21354;SDS011;10835;50.148;19.760;2023-02-16T00:47:46;41.20;;;13.77;;
21354;SDS011;10835;50.148;19.760;2023-02-16T00:50:17;34.83;;;13.30;;
21354;SDS011;10835;50.148;19.760;2023-02-16T00:52:54;29.40;;;11.57;;
21354;SDS011;10835;50.148;19.760;2023-02-16T00:55:24;29.77;;;12.48;;
21354;SDS011;10835;50.148;19.760;2023-02-16T00:57:58;32.97;;;12.63;;
21354;SDS011;10835;50.148;19.760;2023-02-16T01:00:32;31.77;;;11.65;;
21354;SDS011;10835;50.148;19.760;2023-02-16T01:03:04;45.42;;;14.30;;
21354;SDS011;10835;50.148;19.760;2023-02-16T01:05:34;40.45;;;14.68;;
21354;SDS011;10835;50.148;19.760;2023-02-16T01:08:04;45.08;;;16.90;;
21354;SDS011;10835;50.148;19.760;2023-02-16T01:10:53;39.08;;;14.35;;
21354;SDS011;10835;50.148;19.760;2023-02-16T01:13:38;43.90;;;15.93;;
21354;SDS011;10835;50.148;19.760;2023-02-16T01:16:11;45.42;;;14.57;;
21354;SDS011;10835;50.148;19.760;2023-02-16T01:18:41;37.00;;;12.45;;
21354;SDS011;10835;50.148;19.760;2023-02-16T01:21:10;36.03;;;14.70;;
21354;SDS011;10835;50.148;19.760;2023-02-16T01:23:40;31.95;;;14.25;;
21354;SDS011;10835;50.148;19.760;2023-02-16T01:26:10;40.42;;;14.25;;
21354;SDS011;10835;50.148;19.760;2023-02-16T01:28:42;42.47;;;15.32;;
21354;SDS011;10835;50.148;19.760;2023-02-16T01:31:14;43.28;;;15.65;;
21354;SDS011;10835;50.148;19.760;2023-02-16T01:33:43;36.63;;;12.48;;
21354;SDS011;10835;50.148;19.760;2023-02-16T01:36:17;41.60;;;13.20;;
21354;SDS011;10835;50.148;19.760;2023-02-16T01:38:49;38.50;;;13.68;;
21354;SDS011;10835;50.148;19.760;2023-02-16T01:41:19;32.53;;;11.30;;
21354;SDS011;10835;50.148;19.760;2023-02-16T01:44:00;30.63;;;10.77;;
21354;SDS011;10835;50.148;19.760;2023-02-16T01:46:32;30.65;;;10.85;;
21354;SDS011;10835;50.148;19.760;2023-02-16T01:49:07;29.95;;;12.05;;
21354;SDS011;10835;50.148;19.760;2023-02-16T01:51:45;32.95;;;11.93;;
21354;SDS011;10835;50.148;19.760;2023-02-16T01:54:21;27.00;;;10.80;;
21354;SDS011;10835;50.148;19.760;2023-02-16T01:56:59;34.20;;;13.02;;
21354;SDS011;10835;50.148;19.760;2023-02-16T01:59:38;32.22;;;12.20;;
21354;SDS011;10835;50.148;19.760;2023-02-16T02:02:26;31.63;;;11.57;;
21354;SDS011;10835;50.148;19.760;2023-02-16T02:04:59;30.10;;;10.85;;
21354;SDS011;10835;50.148;19.760;2023-02-16T02:07:51;37.65;;;12.13;;
21354;SDS011;10835;50.148;19.760;2023-02-16T02:10:25;32.60;;;12.82;;
21354;SDS011;10835;50.148;19.760;2023-02-16T02:12:58;30.52;;;11.95;;
21354;SDS011;10835;50.148;19.760;2023-02-16T02:15:34;35.70;;;12.35;;
21354;SDS011;10835;50.148;19.760;2023-02-16T02:18:04;26.02;;;10.35;;
21354;SDS011;10835;50.148;19.760;2023-02-16T02:20:36;31.75;;;12.85;;
21354;SDS011;10835;50.148;19.760;2023-02-16T02:23:32;35.72;;;11.85;;
21354;SDS011;10835;50.148;19.760;2023-02-16T02:29:33;30.05;;;12.10;;
21354;SDS011;10835;50.148;19.760;2023-02-16T02:32:25;43.38;;;12.48;;
21354;SDS011;10835;50.148;19.760;2023-02-16T02:35:03;36.70;;;12.85;;
21354;SDS011;10835;50.148;19.760;2023-02-16T02:37:43;38.80;;;14.80;;
21354;SDS011;10835;50.148;19.760;2023-02-16T02:40:18;33.70;;;12.20;;
21354;SDS011;10835;50.148;19.760;2023-02-16T02:42:58;36.30;;;13.57;;
21354;SDS011;10835;50.148;19.760;2023-02-16T02:45:35;36.20;;;13.75;;
21354;SDS011;10835;50.148;19.760;2023-02-16T02:48:09;40.65;;;13.23;;
21354;SDS011;10835;50.148;19.760;2023-02-16T02:50:43;30.13;;;11.88;;
21354;SDS011;10835;50.148;19.760;2023-02-16T02:53:36;37.67;;;12.30;;
21354;SDS011;10835;50.148;19.760;2023-02-16T02:56:06;30.98;;;12.45;;
21354;SDS011;10835;50.148;19.760;2023-02-16T02:58:57;34.40;;;11.73;;
21354;SDS011;10835;50.148;19.760;2023-02-16T03:01:47;34.42;;;13.43;;
21354;SDS011;10835;50.148;19.760;2023-02-16T03:04:20;40.70;;;14.98;;
21354;SDS011;10835;50.148;19.760;2023-02-16T03:06:52;40.60;;;14.32;;
21354;SDS011;10835;50.148;19.760;2023-02-16T03:09:27;31.05;;;12.50;;
21354;SDS011;10835;50.148;19.760;2023-02-16T03:11:55;29.92;;;13.40;;
21354;SDS011;10835;50.148;19.760;2023-02-16T03:14:48;40.58;;;13.90;;
21354;SDS011;10835;50.148;19.760;2023-02-16T03:17:19;34.17;;;14.45;;
21354;SDS011;10835;50.148;19.760;2023-02-16T03:20:08;37.92;;;14.07;;
21354;SDS011;10835;50.148;19.760;2023-02-16T03:23:01;26.67;;;13.73;;
21354;SDS011;10835;50.148;19.760;2023-02-16T03:25:48;29.02;;;14.00;;
21354;SDS011;10835;50.148;19.760;2023-02-16T03:28:36;25.60;;;13.43;;
21354;SDS011;10835;50.148;19.760;2023-02-16T03:31:29;33.92;;;14.05;;
21354;SDS011;10835;50.148;19.760;2023-02-16T03:33:59;35.03;;;13.85;;
21354;SDS011;10835;50.148;19.760;2023-02-16T03:36:28;31.45;;;14.70;;
21354;SDS011;10835;50.148;19.760;2023-02-16T03:38:59;23.40;;;10.43;;
21354;SDS011;10835;50.148;19.760;2023-02-16T03:41:30;36.00;;;15.63;;
21354;SDS011;10835;50.148;19.760;2023-02-16T03:43:59;40.20;;;16.02;;
21354;SDS011;10835;50.148;19.760;2023-02-16T03:46:29;37.15;;;16.33;;
21354;SDS011;10835;50.148;19.760;2023-02-16T03:48:57;45.08;;;17.48;;
21354;SDS011;10835;50.148;19.760;2023-02-16T03:51:25;21.20;;;11.50;;
21354;SDS011;10835;50.148;19.760;2023-02-16T03:53:54;43.00;;;19.13;;
21354;SDS011;10835;50.148;19.760;2023-02-16T03:56:22;33.95;;;14.98;;
21354;SDS011;10835;50.148;19.760;2023-02-16T03:58:50;23.20;;;11.05;;
21354;SDS011;10835;50.148;19.760;2023-02-16T04:01:18;39.13;;;16.65;;
21354;SDS011;10835;50.148;19.760;2023-02-16T04:03:48;36.10;;;14.95;;
21354;SDS011;10835;50.148;19.760;2023-02-16T04:06:16;26.52;;;10.88;;
21354;SDS011;10835;50.148;19.760;2023-02-16T04:08:44;21.95;;;12.13;;
21354;SDS011;10835;50.148;19.760;2023-02-16T04:11:13;31.98;;;14.60;;
21354;SDS011;10835;50.148;19.760;2023-02-16T04:14:13;36.45;;;13.88;;
21354;SDS011;10835;50.148;19.760;2023-02-16T04:16:41;33.85;;;13.40;;
21354;SDS011;10835;50.148;19.760;2023-02-16T04:19:11;40.30;;;15.80;;
21354;SDS011;10835;50.148;19.760;2023-02-16T04:21:39;34.95;;;14.82;;
21354;SDS011;10835;50.148;19.760;2023-02-16T04:24:08;34.03;;;15.10;;
21354;SDS011;10835;50.148;19.760;2023-02-16T04:26:38;33.95;;;13.90;;
21354;SDS011;10835;50.148;19.760;2023-02-16T04:29:06;38.88;;;14.25;;
21354;SDS011;10835;50.148;19.760;2023-02-16T04:31:34;43.92;;;14.50;;
21354;SDS011;10835;50.148;19.760;2023-02-16T04:34:03;34.30;;;15.07;;
21354;SDS011;10835;50.148;19.760;2023-02-16T04:36:32;38.58;;;14.25;;
21354;SDS011;10835;50.148;19.760;2023-02-16T04:39:01;27.85;;;12.55;;
21354;SDS011;10835;50.148;19.760;2023-02-16T04:41:29;34.45;;;12.93;;
21354;SDS011;10835;50.148;19.760;2023-02-16T04:43:57;26.38;;;13.82;;
21354;SDS011;10835;50.148;19.760;2023-02-16T04:46:25;40.20;;;15.52;;
21354;SDS011;10835;50.148;19.760;2023-02-16T04:48:53;40.90;;;14.13;;
21354;SDS011;10835;50.148;19.760;2023-02-16T04:51:22;39.13;;;14.50;;
21354;SDS011;10835;50.148;19.760;2023-02-16T04:53:51;36.53;;;13.45;;
21354;SDS011;10835;50.148;19.760;2023-02-16T04:56:20;30.90;;;15.40;;
21354;SDS011;10835;50.148;19.760;2023-02-16T04:58:48;38.20;;;14.50;;
21354;SDS011;10835;50.148;19.760;2023-02-16T05:01:17;39.30;;;15.07;;
21354;SDS011;10835;50.148;19.760;2023-02-16T05:03:46;39.88;;;14.27;;
21354;SDS011;10835;50.148;19.760;2023-02-16T05:06:15;36.15;;;13.32;;
21354;SDS011;10835;50.148;19.760;2023-02-16T05:08:44;37.72;;;14.52;;
21354;SDS011;10835;50.148;19.760;2023-02-16T05:11:14;35.85;;;13.05;;
21354;SDS011;10835;50.148;19.760;2023-02-16T05:13:59;28.48;;;13.32;;
21354;SDS011;10835;50.148;19.760;2023-02-16T05:16:47;37.33;;;14.38;;
21354;SDS011;10835;50.148;19.760;2023-02-16T05:19:16;35.25;;;14.20;;
21354;SDS011;10835;50.148;19.760;2023-02-16T05:21:47;27.95;;;12.95;;
21354;SDS011;10835;50.148;19.760;2023-02-16T05:24:15;34.05;;;13.55;;
21354;SDS011;10835;50.148;19.760;2023-02-16T05:26:47;27.25;;;13.23;;
21354;SDS011;10835;50.148;19.760;2023-02-16T05:29:17;31.38;;;12.70;;
21354;SDS011;10835;50.148;19.760;2023-02-16T05:31:45;23.95;;;11.07;;
21354;SDS011;10835;50.148;19.760;2023-02-16T05:34:13;13.80;;;7.55;;
21354;SDS011;10835;50.148;19.760;2023-02-16T05:36:42;26.27;;;11.05;;
21354;SDS011;10835;50.148;19.760;2023-02-16T05:39:12;38.38;;;16.35;;
21354;SDS011;10835;50.148;19.760;2023-02-16T05:41:40;37.10;;;15.50;;
21354;SDS011;10835;50.148;19.760;2023-02-16T05:44:12;18.88;;;7.68;;
21354;SDS011;10835;50.148;19.760;2023-02-16T05:46:40;46.08;;;16.05;;
21354;SDS011;10835;50.148;19.760;2023-02-16T05:49:09;35.13;;;14.95;;
21354;SDS011;10835;50.148;19.760;2023-02-16T05:51:37;24.48;;;11.15;;
21354;SDS011;10835;50.148;19.760;2023-02-16T05:54:06;39.83;;;15.90;;
21354;SDS011;10835;50.148;19.760;2023-02-16T05:56:37;29.92;;;11.55;;
21354;SDS011;10835;50.148;19.760;2023-02-16T05:59:05;21.48;;;10.18;;
21354;SDS011;10835;50.148;19.760;2023-02-16T06:01:37;42.38;;;17.77;;
21354;SDS011;10835;50.148;19.760;2023-02-16T06:04:06;44.50;;;16.80;;
21354;SDS011;10835;50.148;19.760;2023-02-16T06:06:35;27.05;;;10.57;;
21354;SDS011;10835;50.148;19.760;2023-02-16T06:09:06;40.58;;;15.80;;
21354;SDS011;10835;50.148;19.760;2023-02-16T06:11:35;31.13;;;14.90;;
21354;SDS011;10835;50.148;19.760;2023-02-16T06:14:04;31.15;;;15.18;;
21354;SDS011;10835;50.148;19.760;2023-02-16T06:16:34;37.85;;;13.57;;
21354;SDS011;10835;50.148;19.760;2023-02-16T06:19:06;29.25;;;13.65;;
21354;SDS011;10835;50.148;19.760;2023-02-16T06:21:35;30.65;;;13.40;;
21354;SDS011;10835;50.148;19.760;2023-02-16T06:24:04;25.63;;;11.82;;
21354;SDS011;10835;50.148;19.760;2023-02-16T06:26:33;35.50;;;13.85;;
21354;SDS011;10835;50.148;19.760;2023-02-16T06:29:02;34.85;;;12.23;;
21354;SDS011;10835;50.148;19.760;2023-02-16T06:31:31;39.60;;;15.68;;
21354;SDS011;10835;50.148;19.760;2023-02-16T06:34:03;33.80;;;14.38;;
21354;SDS011;10835;50.148;19.760;2023-02-16T06:36:32;36.28;;;14.57;;
21354;SDS011;10835;50.148;19.760;2023-02-16T06:39:00;31.85;;;13.98;;
21354;SDS011;10835;50.148;19.760;2023-02-16T06:41:29;35.58;;;15.20;;
21354;SDS011;10835;50.148;19.760;2023-02-16T06:44:03;39.58;;;13.45;;
21354;SDS011;10835;50.148;19.760;2023-02-16T06:46:33;39.60;;;15.30;;
21354;SDS011;10835;50.148;19.760;2023-02-16T06:49:02;34.60;;;13.48;;
21354;SDS011;10835;50.148;19.760;2023-02-16T06:51:31;39.75;;;15.52;;
21354;SDS011;10835;50.148;19.760;2023-02-16T06:54:00;35.22;;;13.82;;
21354;SDS011;10835;50.148;19.760;2023-02-16T06:56:28;36.50;;;13.48;;
21354;SDS011;10835;50.148;19.760;2023-02-16T06:58:56;30.70;;;12.90;;
21354;SDS011;10835;50.148;19.760;2023-02-16T07:01:24;46.53;;;16.48;;
21354;SDS011;10835;50.148;19.760;2023-02-16T07:03:53;32.58;;;14.90;;
21354;SDS011;10835;50.148;19.760;2023-02-16T07:06:25;33.50;;;12.07;;
21354;SDS011;10835;50.148;19.760;2023-02-16T07:08:54;32.22;;;13.13;;
21354;SDS011;10835;50.148;19.760;2023-02-16T07:11:22;35.92;;;14.57;;
21354;SDS011;10835;50.148;19.760;2023-02-16T07:13:51;43.30;;;16.20;;
21354;SDS011;10835;50.148;19.760;2023-02-16T07:16:19;37.15;;;13.70;;
21354;SDS011;10835;50.148;19.760;2023-02-16T07:18:47;31.50;;;13.15;;
21354;SDS011;10835;50.148;19.760;2023-02-16T07:21:16;31.20;;;13.40;;
21354;SDS011;10835;50.148;19.760;2023-02-16T07:23:46;42.85;;;15.68;;
21354;SDS011;10835;50.148;19.760;2023-02-16T07:26:14;40.95;;;15.80;;
21354;SDS011;10835;50.148;19.760;2023-02-16T07:28:42;29.85;;;11.55;;
21354;SDS011;10835;50.148;19.760;2023-02-16T07:31:11;34.17;;;13.57;;
21354;SDS011;10835;50.148;19.760;2023-02-16T07:33:41;30.20;;;11.25;;
21354;SDS011;10835;50.148;19.760;2023-02-16T07:36:10;25.95;;;11.68;;
21354;SDS011;10835;50.148;19.760;2023-02-16T07:38:41;40.33;;;16.63;;
21354;SDS011;10835;50.148;19.760;2023-02-16T07:41:13;32.08;;;13.45;;
21354;SDS011;10835;50.148;19.760;2023-02-16T07:43:42;29.85;;;11.98;;
21354;SDS011;10835;50.148;19.760;2023-02-16T07:46:10;33.70;;;12.68;;
21354;SDS011;10835;50.148;19.760;2023-02-16T07:48:43;31.88;;;9.80;;
21354;SDS011;10835;50.148;19.760;2023-02-16T07:51:20;23.50;;;10.05;;
21354;SDS011;10835;50.148;19.760;2023-02-16T07:53:49;40.38;;;12.27;;
21354;SDS011;10835;50.148;19.760;2023-02-16T07:56:19;21.35;;;8.52;;
21354;SDS011;10835;50.148;19.760;2023-02-16T07:58:49;31.13;;;13.13;;
21354;SDS011;10835;50.148;19.760;2023-02-16T08:01:18;30.42;;;12.43;;
21354;SDS011;10835;50.148;19.760;2023-02-16T08:03:47;20.15;;;9.02;;
21354;SDS011;10835;50.148;19.760;2023-02-16T08:06:16;21.98;;;10.45;;
21354;SDS011;10835;50.148;19.760;2023-02-16T08:08:45;35.03;;;12.15;;
21354;SDS011;10835;50.148;19.760;2023-02-16T08:11:15;28.02;;;11.95;;
21354;SDS011;10835;50.148;19.760;2023-02-16T08:13:45;35.75;;;16.45;;
21354;SDS011;10835;50.148;19.760;2023-02-16T08:16:18;14.48;;;6.68;;
21354;SDS011;10835;50.148;19.760;2023-02-16T08:18:48;27.77;;;11.93;;
21354;SDS011;10835;50.148;19.760;2023-02-16T08:21:18;22.00;;;10.27;;
21354;SDS011;10835;50.148;19.760;2023-02-16T08:23:51;24.13;;;10.82;;
21354;SDS011;10835;50.148;19.760;2023-02-16T08:26:21;32.47;;;14.73;;
21354;SDS011;10835;50.148;19.760;2023-02-16T08:28:55;27.83;;;11.50;;
21354;SDS011;10835;50.148;19.760;2023-02-16T08:31:24;30.35;;;10.73;;
21354;SDS011;10835;50.148;19.760;2023-02-16T08:33:57;32.28;;;12.43;;
21354;SDS011;10835;50.148;19.760;2023-02-16T08:36:32;22.48;;;9.23;;
21354;SDS011;10835;50.148;19.760;2023-02-16T08:39:04;24.60;;;9.63;;
21354;SDS011;10835;50.148;19.760;2023-02-16T08:41:35;26.95;;;9.48;;
21354;SDS011;10835;50.148;19.760;2023-02-16T08:44:08;32.33;;;15.27;;
21354;SDS011;10835;50.148;19.760;2023-02-16T08:46:38;23.98;;;10.35;;
21354;SDS011;10835;50.148;19.760;2023-02-16T08:49:10;22.50;;;9.95;;
21354;SDS011;10835;50.148;19.760;2023-02-16T08:51:40;17.30;;;7.70;;
21354;SDS011;10835;50.148;19.760;2023-02-16T08:54:12;30.88;;;12.30;;
21354;SDS011;10835;50.148;19.760;2023-02-16T08:56:42;26.88;;;10.30;;
21354;SDS011;10835;50.148;19.760;2023-02-16T08:59:16;29.40;;;12.85;;
21354;SDS011;10835;50.148;19.760;2023-02-16T09:01:46;30.38;;;10.43;;
21354;SDS011;10835;50.148;19.760;2023-02-16T09:04:15;28.50;;;6.72;;
21354;SDS011;10835;50.148;19.760;2023-02-16T09:06:49;32.28;;;12.18;;
21354;SDS011;10835;50.148;19.760;2023-02-16T09:09:21;29.02;;;11.63;;
21354;SDS011;10835;50.148;19.760;2023-02-16T09:11:50;12.27;;;6.60;;
21354;SDS011;10835;50.148;19.760;2023-02-16T09:14:19;37.05;;;16.30;;
21354;SDS011;10835;50.148;19.760;2023-02-16T09:16:48;21.38;;;8.25;;
21354;SDS011;10835;50.148;19.760;2023-02-16T09:19:17;35.72;;;15.50;;
21354;SDS011;10835;50.148;19.760;2023-02-16T09:21:47;30.50;;;11.73;;
21354;SDS011;10835;50.148;19.760;2023-02-16T09:24:17;21.75;;;9.60;;
21354;SDS011;10835;50.148;19.760;2023-02-16T09:26:45;23.20;;;10.07;;
21354;SDS011;10835;50.148;19.760;2023-02-16T09:29:15;30.35;;;11.80;;
21354;SDS011;10835;50.148;19.760;2023-02-16T09:31:44;34.80;;;14.48;;
21354;SDS011;10835;50.148;19.760;2023-02-16T09:34:14;20.90;;;10.18;;
21354;SDS011;10835;50.148;19.760;2023-02-16T09:36:44;25.02;;;11.13;;
21354;SDS011;10835;50.148;19.760;2023-02-16T09:39:13;21.13;;;6.78;;
21354;SDS011;10835;50.148;19.760;2023-02-16T09:41:51;18.75;;;8.13;;
21354;SDS011;10835;50.148;19.760;2023-02-16T09:44:29;24.35;;;11.00;;
21354;SDS011;10835;50.148;19.760;2023-02-16T09:47:08;25.95;;;11.25;;
21354;SDS011;10835;50.148;19.760;2023-02-16T09:49:47;28.65;;;13.63;;
21354;SDS011;10835;50.148;19.760;2023-02-16T09:52:17;19.42;;;9.38;;
21354;SDS011;10835;50.148;19.760;2023-02-16T09:54:50;13.10;;;6.60;;
21354;SDS011;10835;50.148;19.760;2023-02-16T09:57:22;11.20;;;4.82;;
21354;SDS011;10835;50.148;19.760;2023-02-16T10:00:09;26.20;;;12.55;;
21354;SDS011;10835;50.148;19.760;2023-02-16T10:02:53;18.30;;;7.70;;
21354;SDS011;10835;50.148;19.760;2023-02-16T10:05:28;13.90;;;6.95;;
21354;SDS011;10835;50.148;19.760;2023-02-16T10:08:04;16.83;;;7.78;;
21354;SDS011;10835;50.148;19.760;2023-02-16T10:10:41;22.90;;;8.65;;
21354;SDS011;10835;50.148;19.760;2023-02-16T10:13:17;14.68;;;7.25;;
21354;SDS011;10835;50.148;19.760;2023-02-16T10:15:50;21.92;;;10.80;;
21354;SDS011;10835;50.148;19.760;2023-02-16T10:18:26;23.08;;;9.23;;
21354;SDS011;10835;50.148;19.760;2023-02-16T10:21:01;24.95;;;12.43;;
21354;SDS011;10835;50.148;19.760;2023-02-16T10:23:38;26.85;;;10.68;;
21354;SDS011;10835;50.148;19.760;2023-02-16T10:26:13;26.20;;;11.25;;
21354;SDS011;10835;50.148;19.760;2023-02-16T10:28:45;25.85;;;11.48;;
21354;SDS011;10835;50.148;19.760;2023-02-16T10:31:18;9.18;;;5.13;;
21354;SDS011;10835;50.148;19.760;2023-02-16T10:34:11;20.30;;;9.13;;
21354;SDS011;10835;50.148;19.760;2023-02-16T10:37:03;19.13;;;9.23;;
21354;SDS011;10835;50.148;19.760;2023-02-16T10:39:44;19.33;;;9.07;;
21354;SDS011;10835;50.148;19.760;2023-02-16T10:42:16;16.67;;;6.93;;
21354;SDS011;10835;50.148;19.760;2023-02-16T10:44:53;19.25;;;8.88;;
21354;SDS011;10835;50.148;19.760;2023-02-16T10:47:28;16.98;;;6.18;;
21354;SDS011;10835;50.148;19.760;2023-02-16T10:50:03;12.45;;;5.10;;
21354;SDS011;10835;50.148;19.760;2023-02-16T10:52:34;31.80;;;8.98;;
21354;SDS011;10835;50.148;19.760;2023-02-16T10:55:07;19.63;;;9.57;;
21354;SDS011;10835;50.148;19.760;2023-02-16T10:57:35;26.35;;;10.82;;
21354;SDS011;10835;50.148;19.760;2023-02-16T11:00:04;16.75;;;7.45;;
21354;SDS011;10835;50.148;19.760;2023-02-16T11:02:36;9.20;;;4.50;;
21354;SDS011;10835;50.148;19.760;2023-02-16T11:08:04;17.05;;;6.22;;
21354;SDS011;10835;50.148;19.760;2023-02-16T11:10:42;9.38;;;4.10;;
21354;SDS011;10835;50.148;19.760;2023-02-16T11:13:27;11.98;;;5.47;;
21354;SDS011;10835;50.148;19.760;2023-02-16T11:15:59;27.45;;;11.27;;
21354;SDS011;10835;50.148;19.760;2023-02-16T11:18:32;14.40;;;8.02;;
21354;SDS011;10835;50.148;19.760;2023-02-16T11:21:05;15.68;;;6.63;;
21354;SDS011;10835;50.148;19.760;2023-02-16T11:23:35;15.38;;;5.72;;
21354;SDS011;10835;50.148;19.760;2023-02-16T11:26:06;18.50;;;7.43;;
21354;SDS011;10835;50.148;19.760;2023-02-16T11:28:49;18.40;;;8.40;;
21354;SDS011;10835;50.148;19.760;2023-02-16T11:31:26;21.33;;;10.77;;
21354;SDS011;10835;50.148;19.760;2023-02-16T11:33:59;12.27;;;4.97;;
21354;SDS011;10835;50.148;19.760;2023-02-16T11:36:33;18.83;;;8.70;;
21354;SDS011;10835;50.148;19.760;2023-02-16T11:39:07;19.85;;;9.73;;
21354;SDS011;10835;50.148;19.760;2023-02-16T11:41:43;16.85;;;8.02;;
21354;SDS011;10835;50.148;19.760;2023-02-16T11:44:23;16.40;;;8.35;;
21354;SDS011;10835;50.148;19.760;2023-02-16T11:46:53;15.55;;;8.48;;
21354;SDS011;10835;50.148;19.760;2023-02-16T11:49:28;16.67;;;8.05;;
21354;SDS011;10835;50.148;19.760;2023-02-16T11:52:00;18.00;;;7.53;;
21354;SDS011;10835;50.148;19.760;2023-02-16T11:54:49;20.52;;;8.38;;
21354;SDS011;10835;50.148;19.760;2023-02-16T11:57:22;16.08;;;7.38;;
21354;SDS011;10835;50.148;19.760;2023-02-16T11:59:52;20.50;;;10.65;;
21354;SDS011;10835;50.148;19.760;2023-02-16T12:02:29;17.60;;;6.30;;
21354;SDS011;10835;50.148;19.760;2023-02-16T12:08:15;19.75;;;9.23;;
21354;SDS011;10835;50.148;19.760;2023-02-16T12:11:06;22.30;;;9.38;;
21354;SDS011;10835;50.148;19.760;2023-02-16T12:13:46;14.00;;;6.55;;
21354;SDS011;10835;50.148;19.760;2023-02-16T12:16:22;16.80;;;7.55;;
21354;SDS011;10835;50.148;19.760;2023-02-16T12:19:04;19.83;;;8.93;;
21354;SDS011;10835;50.148;19.760;2023-02-16T12:21:46;16.08;;;8.07;;
21354;SDS011;10835;50.148;19.760;2023-02-16T12:24:23;16.33;;;7.00;;
21354;SDS011;10835;50.148;19.760;2023-02-16T12:27:00;19.60;;;9.70;;
21354;SDS011;10835;50.148;19.760;2023-02-16T12:29:38;15.15;;;7.40;;
21354;SDS011;10835;50.148;19.760;2023-02-16T12:32:18;21.77;;;9.98;;
21354;SDS011;10835;50.148;19.760;2023-02-16T12:34:59;18.80;;;8.80;;
21354;SDS011;10835;50.148;19.760;2023-02-16T12:37:39;22.45;;;9.25;;
21354;SDS011;10835;50.148;19.760;2023-02-16T12:40:19;14.18;;;7.78;;
21354;SDS011;10835;50.148;19.760;2023-02-16T12:43:00;16.38;;;8.05;;
21354;SDS011;10835;50.148;19.760;2023-02-16T12:45:34;22.05;;;8.38;;
21354;SDS011;10835;50.148;19.760;2023-02-16T12:48:08;25.42;;;12.48;;
21354;SDS011;10835;50.148;19.760;2023-02-16T12:50:46;20.73;;;9.25;;
21354;SDS011;10835;50.148;19.760;2023-02-16T12:53:20;15.27;;;7.55;;
21354;SDS011;10835;50.148;19.760;2023-02-16T12:55:55;19.88;;;8.30;;
21354;SDS011;10835;50.148;19.760;2023-02-16T12:58:27;17.95;;;9.25;;
21354;SDS011;10835;50.148;19.760;2023-02-16T13:00:58;14.68;;;6.30;;
21354;SDS011;10835;50.148;19.760;2023-02-16T13:03:32;18.92;;;8.52;;
21354;SDS011;10835;50.148;19.760;2023-02-16T13:06:12;18.73;;;8.23;;
21354;SDS011;10835;50.148;19.760;2023-02-16T13:08:47;22.65;;;10.90;;
21354;SDS011;10835;50.148;19.760;2023-02-16T13:11:24;17.98;;;8.77;;
21354;SDS011;10835;50.148;19.760;2023-02-16T13:13:59;16.75;;;6.38;;
21354;SDS011;10835;50.148;19.760;2023-02-16T13:16:34;14.10;;;6.60;;
21354;SDS011;10835;50.148;19.760;2023-02-16T13:19:09;22.35;;;9.80;;
21354;SDS011;10835;50.148;19.760;2023-02-16T13:21:45;22.92;;;10.77;;
21354;SDS011;10835;50.148;19.760;2023-02-16T13:24:42;18.48;;;8.05;;
21354;SDS011;10835;50.148;19.760;2023-02-16T13:27:26;27.60;;;11.90;;
21354;SDS011;10835;50.148;19.760;2023-02-16T13:33:20;17.48;;;7.55;;
21354;SDS011;10835;50.148;19.760;2023-02-16T13:36:21;17.65;;;7.32;;
21354;SDS011;10835;50.148;19.760;2023-02-16T13:39:18;20.85;;;10.27;;
21354;SDS011;10835;50.148;19.760;2023-02-16T13:42:26;17.30;;;8.52;;
21354;SDS011;10835;50.148;19.760;2023-02-16T13:45:13;14.15;;;8.05;;
21354;SDS011;10835;50.148;19.760;2023-02-16T13:47:43;13.48;;;6.07;;
21354;SDS011;10835;50.148;19.760;2023-02-16T13:50:24;17.52;;;9.50;;
21354;SDS011;10835;50.148;19.760;2023-02-16T13:53:07;10.68;;;4.75;;
21354;SDS011;10835;50.148;19.760;2023-02-16T13:55:39;21.60;;;10.68;;
21354;SDS011;10835;50.148;19.760;2023-02-16T14:04:04;25.02;;;10.00;;
21354;SDS011;10835;50.148;19.760;2023-02-16T14:06:38;19.77;;;9.95;;
21354;SDS011;10835;50.148;19.760;2023-02-16T14:12:04;17.50;;;7.90;;
21354;SDS011;10835;50.148;19.760;2023-02-16T14:14:57;19.90;;;8.27;;
21354;SDS011;10835;50.148;19.760;2023-02-16T14:17:28;10.65;;;4.70;;
21354;SDS011;10835;50.148;19.760;2023-02-16T14:19:58;21.98;;;11.35;;
21354;SDS011;10835;50.148;19.760;2023-02-16T14:22:37;22.10;;;11.20;;
21354;SDS011;10835;50.148;19.760;2023-02-16T14:25:30;13.48;;;6.65;;
21354;SDS011;10835;50.148;19.760;2023-02-16T14:28:02;21.52;;;9.55;;
21354;SDS011;10835;50.148;19.760;2023-02-16T14:30:34;18.60;;;8.45;;
21354;SDS011;10835;50.148;19.760;2023-02-16T14:33:17;15.70;;;7.03;;
21354;SDS011;10835;50.148;19.760;2023-02-16T14:36:03;21.00;;;10.02;;
21354;SDS011;10835;50.148;19.760;2023-02-16T14:38:34;19.95;;;9.57;;
21354;SDS011;10835;50.148;19.760;2023-02-16T14:41:05;18.95;;;9.88;;
21354;SDS011;10835;50.148;19.760;2023-02-16T14:43:39;21.67;;;9.00;;
21354;SDS011;10835;50.148;19.760;2023-02-16T14:46:23;22.30;;;10.00;;
21354;SDS011;10835;50.148;19.760;2023-02-16T14:49:27;23.05;;;11.35;;
21354;SDS011;10835;50.148;19.760;2023-02-16T14:52:39;17.25;;;8.02;;
21354;SDS011;10835;50.148;19.760;2023-02-16T14:55:42;21.38;;;10.95;;
21354;SDS011;10835;50.148;19.760;2023-02-16T14:58:35;16.27;;;7.55;;
21354;SDS011;10835;50.148;19.760;2023-02-16T15:01:12;19.27;;;9.00;;
21354;SDS011;10835;50.148;19.760;2023-02-16T15:03:44;22.30;;;9.45;;
21354;SDS011;10835;50.148;19.760;2023-02-16T15:06:17;25.50;;;9.55;;
21354;SDS011;10835;50.148;19.760;2023-02-16T15:08:53;22.98;;;9.40;;
21354;SDS011;10835;50.148;19.760;2023-02-16T15:11:26;22.08;;;9.10;;
21354;SDS011;10835;50.148;19.760;2023-02-16T15:14:07;24.30;;;10.80;;
21354;SDS011;10835;50.148;19.760;2023-02-16T15:16:38;27.88;;;14.80;;